Arcadia, Oregon
Current Conditions -  °F | °C
As of 7:53 PM on Saturday 25 Oct 2014 (Local Time) from KONO Reporting Station
Clear Clear  
Wind Chill: 51°   Ceiling: Unl
Heat Index: 51°   Visibility: 10mi
Dew Point: 47°   Wind: 3mph
Humidity: 86%   Direction: 300°WNW
Pressure: 29.76"   Gusts: NA
Location:  43.754°N, 117.202°W
Report Text: KONO 260153Z AUTO 30003KT 10SM CLR 11/08 A2976 RMK AO2 SLP085 T01060083
Loading
Personal Weather Stations






























Interactive Weather Map New forecast layout! Learn more

10-Day Weather Forecast

Advertisements
Track Severe Weather on mobile